Time;durP1;ratioP1;P1;durP2;ratioP2;P2;SDS_P1;SDS_P2;PMS_P1;PMS_P2;Temp;Humidity;BMP_temperature;BMP_pressure;BME280_temperature;BME280_humidity;BME280_pressure;Samples;Min_cycle;Max_cycle;Signal;HPM_P1;HPM_P2
2023/01/17 00:01:13;;;;;;;1.30;0.30;;;;;;;;;;4995270;28;20029;-79
2023/01/17 00:11:52;;;;;;;4.30;0.97;;;;;;;;;;5013342;28;20489;-79
2023/01/17 00:14:18;;;;;;;3.23;0.90;;;;;;;;;;5012898;28;20026;-79
2023/01/17 00:16:43;;;;;;;3.93;0.80;;;;;;;;;;4995351;28;20033;-80
2023/01/17 01:35:56;;;;;;;5.95;1.77;;;;;;;;;;5010947;28;20025;-80
2023/01/17 01:38:22;;;;;;;5.63;1.50;;;;;;;;;;4993717;28;20030;-80
2023/01/17 01:40:49;;;;;;;4.33;1.73;;;;;;;;;;4994266;28;20353;-79
2023/01/17 01:43:16;;;;;;;4.23;1.80;;;;;;;;;;5011731;28;20056;-79
2023/01/17 01:45:44;;;;;;;7.80;1.70;;;;;;;;;;4993694;28;20458;-79
2023/01/17 01:48:22;;;;;;;6.57;1.80;;;;;;;;;;4993333;28;20018;-80
2023/01/17 01:50:48;;;;;;;9.23;1.93;;;;;;;;;;4993990;28;20014;-79
2023/01/17 01:53:13;;;;;;;7.70;2.17;;;;;;;;;;5011790;28;20398;-79
2023/01/17 01:55:39;;;;;;;4.40;1.70;;;;;;;;;;5011495;28;20030;-80
2023/01/17 01:58:11;;;;;;;7.87;1.50;;;;;;;;;;5011620;28;20046;-80
2023/01/17 02:00:39;;;;;;;4.05;1.77;;;;;;;;;;4997853;28;20029;-80
2023/01/17 02:03:07;;;;;;;5.17;1.93;;;;;;;;;;4997801;28;20026;-79
2023/01/17 02:05:32;;;;;;;4.97;1.70;;;;;;;;;;5015756;28;20030;-80
2023/01/17 02:07:57;;;;;;;8.90;1.90;;;;;;;;;;4997698;28;20411;-80
2023/01/17 02:10:23;;;;;;;8.63;2.10;;;;;;;;;;4997616;28;20181;-80
2023/01/17 02:12:48;;;;;;;3.83;1.90;;;;;;;;;;4996805;28;20026;-79
2023/01/17 02:15:13;;;;;;;4.37;1.93;;;;;;;;;;4997354;28;20030;-79
2023/01/17 02:17:48;;;;;;;11.20;2.40;;;;;;;;;;5015504;28;20025;-79
2023/01/17 02:20:32;;;;;;;8.33;2.13;;;;;;;;;;4997302;28;20120;-80
2023/01/17 02:23:00;;;;;;;7.70;2.53;;;;;;;;;;4997526;28;20025;-80
2023/01/17 02:25:44;;;;;;;7.20;2.23;;;;;;;;;;4994582;28;20015;-80
2023/01/17 02:28:18;;;;;;;7.07;2.10;;;;;;;;;;5014613;28;20021;-80
2023/01/17 02:31:04;;;;;;;8.50;2.63;;;;;;;;;;5014938;28;20103;-79
2023/01/17 02:33:45;;;;;;;4.80;2.67;;;;;;;;;;4996358;28;20037;-80
2023/01/17 02:36:18;;;;;;;6.67;2.80;;;;;;;;;;4996711;28;20048;-79
2023/01/17 02:38:52;;;;;;;4.23;2.20;;;;;;;;;;5014631;28;20044;-80
2023/01/17 02:41:20;;;;;;;4.93;2.50;;;;;;;;;;5014768;28;20018;-79
2023/01/17 02:43:47;;;;;;;9.07;2.80;;;;;;;;;;4996672;28;20009;-79
2023/01/17 02:46:13;;;;;;;8.23;2.83;;;;;;;;;;4997002;28;20030;-79
2023/01/17 02:48:38;;;;;;;8.30;2.43;;;;;;;;;;5012482;28;20448;-80
2023/01/17 02:51:09;;;;;;;7.47;2.90;;;;;;;;;;4996943;28;20048;-79
2023/01/17 02:53:34;;;;;;;5.83;2.37;;;;;;;;;;4996820;28;20167;-79
2023/01/17 02:55:59;;;;;;;7.60;2.30;;;;;;;;;;4996626;28;20112;-80
2023/01/17 02:58:32;;;;;;;10.37;2.83;;;;;;;;;;5014049;28;20418;-79
2023/01/17 03:01:06;;;;;;;5.13;2.90;;;;;;;;;;4996852;28;20109;-80
2023/01/17 03:03:55;;;;;;;10.37;2.73;;;;;;;;;;4996788;28;20115;-79
2023/01/17 03:06:27;;;;;;;5.60;2.50;;;;;;;;;;4996848;28;20014;-79
2023/01/17 03:08:53;;;;;;;5.15;2.53;;;;;;;;;;4996651;28;20634;-80
2023/01/17 03:11:18;;;;;;;7.37;2.43;;;;;;;;;;4994129;28;20037;-79
2023/01/17 03:13:44;;;;;;;7.37;2.57;;;;;;;;;;4996338;28;20037;-80
2023/01/17 03:16:19;;;;;;;7.73;2.43;;;;;;;;;;4996603;28;20033;-79
2023/01/17 03:18:45;;;;;;;6.20;2.50;;;;;;;;;;4996460;28;20368;-79
2023/01/17 03:21:10;;;;;;;6.20;2.30;;;;;;;;;;5014331;28;20010;-79
2023/01/17 03:23:35;;;;;;;7.47;2.80;;;;;;;;;;4995992;28;20014;-79
2023/01/17 03:26:00;;;;;;;6.77;2.60;;;;;;;;;;4995255;28;20089;-80
2023/01/17 03:28:26;;;;;;;6.07;2.80;;;;;;;;;;4996048;28;20060;-79
2023/01/17 03:30:51;;;;;;;6.90;2.50;;;;;;;;;;4996557;28;20025;-80
2023/01/17 03:33:17;;;;;;;10.40;2.77;;;;;;;;;;5013542;28;20057;-79
2023/01/17 03:35:43;;;;;;;5.57;2.57;;;;;;;;;;4995591;28;20105;-79
2023/01/17 03:38:08;;;;;;;9.53;2.77;;;;;;;;;;4996300;28;20432;-79
2023/01/17 03:40:34;;;;;;;5.63;2.97;;;;;;;;;;5013723;28;20049;-80
2023/01/17 03:42:59;;;;;;;5.63;2.60;;;;;;;;;;4996142;28;20018;-79
2023/01/17 03:45:24;;;;;;;6.83;2.73;;;;;;;;;;5005587;28;20449;-80
2023/01/17 03:47:49;;;;;;;6.70;2.70;;;;;;;;;;5012889;28;20022;-79
2023/01/17 03:50:14;;;;;;;7.10;2.57;;;;;;;;;;4995059;28;20030;-79
2023/01/17 03:52:39;;;;;;;5.37;2.87;;;;;;;;;;4996079;28;20434;-79
2023/01/17 03:55:05;;;;;;;7.83;3.40;;;;;;;;;;4995841;28;20420;-79
2023/01/17 03:57:30;;;;;;;9.93;3.53;;;;;;;;;;5012015;28;20378;-79
2023/01/17 03:59:55;;;;;;;9.20;3.20;;;;;;;;;;4994433;28;20372;-79
2023/01/17 04:02:21;;;;;;;9.20;3.00;;;;;;;;;;4995606;28;20072;-79
2023/01/17 04:04:46;;;;;;;6.70;3.10;;;;;;;;;;4995469;28;20069;-79
2023/01/17 04:07:11;;;;;;;7.30;3.47;;;;;;;;;;4995742;28;20017;-80
2023/01/17 04:09:36;;;;;;;10.77;3.93;;;;;;;;;;4995417;28;20153;-79
2023/01/17 04:12:02;;;;;;;11.17;3.73;;;;;;;;;;4994979;28;20469;-79
2023/01/17 04:14:27;;;;;;;8.87;4.23;;;;;;;;;;5012744;28;20018;-79
2023/01/17 04:16:52;;;;;;;8.63;3.33;;;;;;;;;;4995444;28;20605;-79
2023/01/17 04:19:17;;;;;;;13.20;5.07;;;;;;;;;;4995254;28;20178;-79
2023/01/17 04:21:42;;;;;;;7.97;3.80;;;;;;;;;;4994949;28;20022;-79
2023/01/17 04:24:08;;;;;;;10.83;3.40;;;;;;;;;;5012119;28;20160;-79
2023/01/17 04:26:33;;;;;;;11.77;4.00;;;;;;;;;;4995307;28;20087;-79
2023/01/17 04:28:58;;;;;;;11.33;4.70;;;;;;;;;;4995183;28;20577;-79
2023/01/17 04:31:23;;;;;;;9.03;4.40;;;;;;;;;;4995265;28;20037;-79
2023/01/17 04:33:48;;;;;;;9.73;4.33;;;;;;;;;;4994942;28;20033;-79
2023/01/17 04:36:14;;;;;;;10.43;4.57;;;;;;;;;;4994437;28;20425;-79
2023/01/17 04:38:39;;;;;;;11.83;4.43;;;;;;;;;;4994164;28;20067;-79
2023/01/17 04:41:04;;;;;;;11.57;4.40;;;;;;;;;;5013080;28;20033;-79
2023/01/17 04:43:29;;;;;;;9.50;4.40;;;;;;;;;;4994994;28;20533;-79
2023/01/17 04:45:55;;;;;;;10.70;4.87;;;;;;;;;;4990139;28;20389;-79
2023/01/17 04:48:20;;;;;;;11.03;4.87;;;;;;;;;;5011547;28;20112;-79
2023/01/17 04:50:46;;;;;;;13.83;4.90;;;;;;;;;;4995130;28;20432;-79
2023/01/17 04:53:11;;;;;;;8.83;4.67;;;;;;;;;;5013116;28;20038;-79
2023/01/17 04:55:36;;;;;;;9.40;4.43;;;;;;;;;;4994665;28;20436;-79
2023/01/17 04:58:01;;;;;;;13.50;5.53;;;;;;;;;;5012242;28;20021;-80
2023/01/17 05:00:26;;;;;;;14.27;5.07;;;;;;;;;;4993758;28;20067;-79
2023/01/17 05:02:52;;;;;;;10.47;4.63;;;;;;;;;;4994707;28;20063;-79
2023/01/17 05:05:17;;;;;;;8.93;4.47;;;;;;;;;;4994491;28;20021;-79
2023/01/17 05:07:42;;;;;;;10.40;5.23;;;;;;;;;;5012490;28;20018;-79
2023/01/17 05:10:08;;;;;;;14.83;5.33;;;;;;;;;;4994342;28;20034;-79
2023/01/17 05:12:33;;;;;;;10.97;5.23;;;;;;;;;;4993822;28;20499;-79
2023/01/17 05:15:01;;;;;;;10.67;4.90;;;;;;;;;;4994402;28;20061;-79
2023/01/17 05:17:26;;;;;;;12.57;5.27;;;;;;;;;;4994473;28;20081;-79
2023/01/17 05:19:52;;;;;;;14.00;5.07;;;;;;;;;;4993996;28;20108;-79
2023/01/17 05:22:17;;;;;;;12.53;5.20;;;;;;;;;;4994590;28;20109;-80
2023/01/17 05:24:43;;;;;;;11.70;5.53;;;;;;;;;;5012007;28;20010;-80
2023/01/17 05:27:08;;;;;;;13.30;5.00;;;;;;;;;;4994161;28;20113;-80
2023/01/17 05:29:33;;;;;;;10.93;5.73;;;;;;;;;;4992993;28;20121;-80
2023/01/17 05:31:58;;;;;;;12.63;5.37;;;;;;;;;;4994087;28;20060;-80
2023/01/17 05:34:23;;;;;;;13.17;5.23;;;;;;;;;;4993411;28;20108;-79
2023/01/17 05:36:49;;;;;;;13.53;5.43;;;;;;;;;;5012005;28;20022;-80
2023/01/17 05:39:14;;;;;;;15.57;5.30;;;;;;;;;;5011179;28;20029;-79
2023/01/17 05:41:39;;;;;;;17.20;5.77;;;;;;;;;;4993417;28;20034;-80
2023/01/17 05:44:04;;;;;;;11.70;5.37;;;;;;;;;;4993609;28;20022;-79
2023/01/17 05:46:30;;;;;;;15.67;5.47;;;;;;;;;;4993925;28;20029;-79
2023/01/17 05:48:55;;;;;;;11.93;5.10;;;;;;;;;;5011452;28;20105;-79
2023/01/17 05:51:21;;;;;;;16.77;6.13;;;;;;;;;;4994381;28;20120;-79
2023/01/17 05:53:46;;;;;;;16.27;5.67;;;;;;;;;;5010829;28;20442;-80
2023/01/17 05:56:11;;;;;;;13.47;5.63;;;;;;;;;;4994099;28;20129;-80
2023/01/17 05:58:38;;;;;;;13.57;6.03;;;;;;;;;;5011726;28;20025;-80
2023/01/17 06:01:04;;;;;;;11.70;5.33;;;;;;;;;;5011870;28;20255;-80
2023/01/17 06:03:29;;;;;;;11.47;5.53;;;;;;;;;;4993430;28;20017;-80
2023/01/17 06:05:54;;;;;;;13.30;5.67;;;;;;;;;;5010413;28;20028;-79
2023/01/17 06:08:19;;;;;;;14.27;5.63;;;;;;;;;;5011420;28;20566;-80
2023/01/17 06:10:44;;;;;;;10.73;5.50;;;;;;;;;;5011629;28;20033;-79
2023/01/17 06:13:11;;;;;;;16.57;6.27;;;;;;;;;;5011536;28;20079;-79
2023/01/17 06:15:37;;;;;;;21.07;5.77;;;;;;;;;;5008480;28;20064;-80
2023/01/17 06:18:03;;;;;;;16.70;6.60;;;;;;;;;;4988433;28;20076;-79
2023/01/17 06:20:28;;;;;;;18.83;6.03;;;;;;;;;;4992878;28;20037;-79
2023/01/17 06:22:54;;;;;;;12.00;5.50;;;;;;;;;;4992687;28;20021;-79
2023/01/17 06:25:19;;;;;;;12.60;5.97;;;;;;;;;;5010527;28;20030;-79
2023/01/17 06:27:44;;;;;;;14.87;5.93;;;;;;;;;;5011048;28;20062;-79
2023/01/17 06:30:10;;;;;;;15.53;5.60;;;;;;;;;;5011406;28;20029;-80
2023/01/17 06:32:35;;;;;;;13.33;6.40;;;;;;;;;;4992922;28;20026;-79
2023/01/17 06:35:00;;;;;;;14.43;7.10;;;;;;;;;;5010821;28;20073;-79
2023/01/17 06:37:25;;;;;;;14.27;5.73;;;;;;;;;;5000158;28;20034;-79
2023/01/17 06:39:50;;;;;;;15.93;6.90;;;;;;;;;;5004464;28;20025;-79
2023/01/17 06:42:16;;;;;;;13.67;6.00;;;;;;;;;;5010517;28;20017;-79
2023/01/17 06:44:41;;;;;;;12.83;5.40;;;;;;;;;;5005707;28;20037;-79
2023/01/17 06:47:06;;;;;;;15.10;6.10;;;;;;;;;;4993605;28;20018;-79
2023/01/17 06:49:31;;;;;;;13.00;5.70;;;;;;;;;;4997351;28;20401;-79
2023/01/17 06:51:56;;;;;;;12.70;5.77;;;;;;;;;;4995420;28;20029;-80
2023/01/17 06:54:22;;;;;;;14.67;5.60;;;;;;;;;;4998774;28;20033;-79
2023/01/17 06:56:47;;;;;;;14.97;6.23;;;;;;;;;;4993894;28;20080;-79
2023/01/17 06:59:12;;;;;;;14.90;6.30;;;;;;;;;;4994473;28;20037;-79
2023/01/17 07:01:37;;;;;;;17.50;6.13;;;;;;;;;;5012305;28;20025;-79
2023/01/17 07:04:03;;;;;;;11.00;5.23;;;;;;;;;;5012623;28;20018;-79
2023/01/17 07:06:28;;;;;;;16.00;5.43;;;;;;;;;;5013389;28;20476;-79
2023/01/17 07:08:56;;;;;;;18.27;6.17;;;;;;;;;;4997503;28;20040;-79
2023/01/17 07:11:22;;;;;;;13.20;5.50;;;;;;;;;;4995376;28;20034;-79
2023/01/17 07:13:47;;;;;;;11.97;5.63;;;;;;;;;;4992789;28;20388;-79
2023/01/17 07:16:12;;;;;;;14.43;5.50;;;;;;;;;;5000618;28;20033;-79
2023/01/17 07:18:40;;;;;;;25.80;8.90;;;;;;;;;;4992801;28;20444;-80
2023/01/17 07:21:10;;;;;;;25.20;10.33;;;;;;;;;;4998194;28;20113;-79
2023/01/17 07:23:35;;;;;;;24.80;10.60;;;;;;;;;;5011370;28;20029;-79
2023/01/17 07:26:01;;;;;;;20.93;9.07;;;;;;;;;;5013822;28;20092;-79
2023/01/17 07:28:27;;;;;;;21.73;8.33;;;;;;;;;;4995036;28;20033;-80
2023/01/17 07:30:52;;;;;;;14.50;7.27;;;;;;;;;;5012838;28;20429;-80
2023/01/17 07:33:18;;;;;;;20.00;7.80;;;;;;;;;;4997411;28;20121;-80
2023/01/17 07:35:43;;;;;;;24.83;9.77;;;;;;;;;;5013816;28;20054;-80
2023/01/17 07:38:12;;;;;;;47.70;16.63;;;;;;;;;;5000800;28;20029;-79
2023/01/17 07:40:37;;;;;;;23.80;9.57;;;;;;;;;;5007505;28;20096;-80
2023/01/17 07:43:12;;;;;;;19.20;8.30;;;;;;;;;;4991634;28;20026;-80
2023/01/17 07:45:39;;;;;;;15.93;6.83;;;;;;;;;;5005346;28;20030;-80
2023/01/17 07:48:04;;;;;;;17.30;7.00;;;;;;;;;;4993075;28;20045;-80
2023/01/17 07:50:30;;;;;;;20.33;7.47;;;;;;;;;;5010642;28;20022;-79
2023/01/17 07:52:55;;;;;;;19.00;7.20;;;;;;;;;;5009321;28;20575;-80
2023/01/17 07:55:20;;;;;;;15.57;7.17;;;;;;;;;;5013193;28;20025;-79
2023/01/17 07:57:47;;;;;;;19.80;8.87;;;;;;;;;;4995030;28;20474;-79
2023/01/17 08:00:12;;;;;;;21.13;8.43;;;;;;;;;;5013416;28;20041;-79
2023/01/17 08:02:38;;;;;;;20.40;8.93;;;;;;;;;;5007827;28;20022;-79
2023/01/17 08:05:03;;;;;;;22.97;9.00;;;;;;;;;;5011094;28;20036;-80
2023/01/17 08:07:28;;;;;;;22.30;8.90;;;;;;;;;;4995221;28;20022;-79
2023/01/17 08:09:54;;;;;;;22.27;9.10;;;;;;;;;;4994046;28;20026;-79
2023/01/17 08:12:19;;;;;;;21.27;9.40;;;;;;;;;;4995919;28;20054;-79
2023/01/17 08:14:44;;;;;;;30.70;10.17;;;;;;;;;;5010410;28;20503;-79
2023/01/17 08:17:11;;;;;;;24.50;10.43;;;;;;;;;;4995209;28;20025;-79
2023/01/17 08:19:36;;;;;;;31.87;13.87;;;;;;;;;;4995384;28;20104;-80
2023/01/17 08:22:02;;;;;;;28.50;13.83;;;;;;;;;;4995399;28;20037;-80
2023/01/17 08:24:27;;;;;;;25.33;12.30;;;;;;;;;;5011038;28;20437;-79
2023/01/17 08:26:55;;;;;;;11.47;4.97;;;;;;;;;;5010866;28;20378;-80
2023/01/17 08:29:21;;;;;;;18.70;7.17;;;;;;;;;;4994743;28;20524;-79
2023/01/17 08:31:46;;;;;;;16.63;6.80;;;;;;;;;;5012786;28;20121;-79
2023/01/17 08:34:13;;;;;;;22.53;7.10;;;;;;;;;;4995287;28;20385;-79
2023/01/17 08:36:38;;;;;;;16.17;7.70;;;;;;;;;;4994669;28;20021;-79
2023/01/17 08:39:03;;;;;;;16.50;8.30;;;;;;;;;;5011031;28;20557;-79
2023/01/17 08:41:30;;;;;;;19.20;6.97;;;;;;;;;;5012875;28;20022;-80
2023/01/17 08:43:56;;;;;;;15.80;6.80;;;;;;;;;;4994581;28;20025;-79
2023/01/17 08:46:21;;;;;;;16.27;6.90;;;;;;;;;;4983340;28;20018;-79
2023/01/17 08:48:46;;;;;;;19.27;6.90;;;;;;;;;;4994077;28;20374;-80
2023/01/17 08:51:12;;;;;;;16.73;6.93;;;;;;;;;;5012414;28;20017;-79
2023/01/17 08:53:37;;;;;;;19.03;6.30;;;;;;;;;;4995100;28;20738;-79
2023/01/17 08:56:03;;;;;;;18.30;7.00;;;;;;;;;;4994379;28;20433;-79
2023/01/17 08:58:29;;;;;;;20.20;8.00;;;;;;;;;;4994261;28;20030;-79
2023/01/17 09:00:58;;;;;;;16.20;6.90;;;;;;;;;;5011477;28;20053;-79
2023/01/17 09:03:23;;;;;;;13.27;6.67;;;;;;;;;;5012210;28;20076;-80
2023/01/17 09:05:48;;;;;;;16.80;6.53;;;;;;;;;;5010972;28;20018;-80
2023/01/17 09:08:14;;;;;;;14.83;6.43;;;;;;;;;;4994216;28;20095;-79
2023/01/17 09:10:39;;;;;;;17.83;7.10;;;;;;;;;;5010709;28;20487;-80
2023/01/17 09:13:04;;;;;;;18.53;7.03;;;;;;;;;;4994730;28;20441;-79
2023/01/17 09:15:30;;;;;;;19.30;8.13;;;;;;;;;;5010875;28;20025;-80
2023/01/17 09:17:55;;;;;;;18.23;7.17;;;;;;;;;;4994326;28;20133;-80
2023/01/17 09:20:22;;;;;;;20.57;8.13;;;;;;;;;;4994520;28;20472;-80
2023/01/17 09:22:47;;;;;;;23.20;9.67;;;;;;;;;;4994164;28;20056;-80
2023/01/17 09:25:13;;;;;;;21.30;9.27;;;;;;;;;;4994436;28;20457;-80
2023/01/17 09:27:38;;;;;;;24.17;10.00;;;;;;;;;;5010224;28;20029;-80
2023/01/17 09:30:03;;;;;;;22.83;8.67;;;;;;;;;;4994150;28;20097;-79
2023/01/17 09:32:28;;;;;;;17.37;7.53;;;;;;;;;;4994551;28;20120;-80
2023/01/17 09:34:56;;;;;;;15.40;7.10;;;;;;;;;;4993906;28;20492;-79
2023/01/17 09:37:21;;;;;;;18.30;7.17;;;;;;;;;;4993959;28;20673;-79
2023/01/17 09:39:47;;;;;;;18.37;7.57;;;;;;;;;;4993424;28;20088;-79
2023/01/17 09:42:18;;;;;;;20.20;6.87;;;;;;;;;;4994191;28;20164;-80
2023/01/17 09:44:45;;;;;;;19.13;7.17;;;;;;;;;;4993824;28;20124;-80
2023/01/17 09:47:29;;;;;;;16.83;6.53;;;;;;;;;;4994370;28;20041;-80
2023/01/17 09:49:56;;;;;;;23.80;7.03;;;;;;;;;;5010649;28;20626;-80
2023/01/17 09:52:22;;;;;;;17.20;7.03;;;;;;;;;;5011735;28;20096;-80
2023/01/17 09:54:48;;;;;;;20.87;7.23;;;;;;;;;;4993861;28;20092;-80
2023/01/17 09:57:19;;;;;;;18.03;7.10;;;;;;;;;;4994046;28;20028;-80
2023/01/17 09:59:52;;;;;;;14.10;6.55;;;;;;;;;;4993593;28;20053;-79
2023/01/17 10:02:23;;;;;;;17.90;7.07;;;;;;;;;;4993559;28;20022;-80
2023/01/17 10:04:50;;;;;;;17.97;7.20;;;;;;;;;;4993484;28;20053;-80
2023/01/17 10:07:18;;;;;;;20.00;7.50;;;;;;;;;;5010253;28;20032;-79
2023/01/17 10:09:54;;;;;;;22.93;6.70;;;;;;;;;;4993820;28;20018;-80
2023/01/17 10:12:38;;;;;;;22.53;7.53;;;;;;;;;;4993056;28;20408;-79
2023/01/17 10:15:05;;;;;;;17.10;7.00;;;;;;;;;;4992963;28;20424;-79
2023/01/17 10:17:31;;;;;;;16.97;7.67;;;;;;;;;;4993502;28;20033;-79
2023/01/17 10:20:02;;;;;;;28.40;8.67;;;;;;;;;;4995008;28;20026;-80
2023/01/17 10:22:51;;;;;;;20.45;6.80;;;;;;;;;;5015512;28;20097;-80
2023/01/17 10:25:34;;;;;;;16.47;7.43;;;;;;;;;;4994838;28;20018;-80
2023/01/17 10:28:13;;;;;;;23.33;7.20;;;;;;;;;;4996362;28;20049;-80
2023/01/17 10:30:43;;;;;;;18.27;7.70;;;;;;;;;;5014502;28;20026;-80
2023/01/17 10:33:15;;;;;;;23.77;7.50;;;;;;;;;;4997439;28;20050;-80
2023/01/17 10:35:47;;;;;;;17.30;7.50;;;;;;;;;;5015241;28;20100;-80
2023/01/17 10:38:13;;;;;;;17.23;7.18;;;;;;;;;;4996432;28;20193;-80
2023/01/17 10:40:41;;;;;;;19.67;7.47;;;;;;;;;;4997042;28;20030;-80
2023/01/17 10:43:09;;;;;;;16.73;7.63;;;;;;;;;;5014640;28;20021;-80
2023/01/17 10:45:42;;;;;;;24.43;8.20;;;;;;;;;;5014907;28;20037;-80
2023/01/17 10:48:08;;;;;;;18.83;6.93;;;;;;;;;;4996509;28;20025;-80
2023/01/17 10:50:39;;;;;;;19.43;7.73;;;;;;;;;;4996890;28;20738;-80
2023/01/17 10:53:16;;;;;;;19.25;7.07;;;;;;;;;;4996296;28;20036;-80
2023/01/17 10:55:49;;;;;;;27.50;7.50;;;;;;;;;;4996834;28;20381;-80
2023/01/17 10:58:14;;;;;;;22.67;6.67;;;;;;;;;;4995716;28;20901;-80
2023/01/17 11:00:43;;;;;;;16.27;7.30;;;;;;;;;;4997180;28;20036;-80
2023/01/17 11:03:12;;;;;;;21.00;7.30;;;;;;;;;;4995480;28;20025;-80
2023/01/17 11:05:39;;;;;;;20.20;7.10;;;;;;;;;;5020399;28;20461;-80
2023/01/17 11:08:09;;;;;;;21.47;7.17;;;;;;;;;;5003972;28;20041;-80
2023/01/17 11:10:52;;;;;;;19.67;6.47;;;;;;;;;;5013146;28;20449;-80
2023/01/17 11:13:18;;;;;;;16.00;5.97;;;;;;;;;;4998361;28;20030;-80
2023/01/17 11:15:46;;;;;;;14.90;6.17;;;;;;;;;;5008157;28;20021;-80
2023/01/17 11:18:19;;;;;;;16.60;6.23;;;;;;;;;;4996676;28;20117;-80
2023/01/17 11:20:44;;;;;;;20.70;5.83;;;;;;;;;;4995859;28;20036;-80
2023/01/17 11:23:19;;;;;;;18.00;6.40;;;;;;;;;;5000661;28;20022;-80
2023/01/17 11:25:49;;;;;;;16.10;5.83;;;;;;;;;;5012248;28;20029;-80
2023/01/17 11:28:19;;;;;;;16.07;5.50;;;;;;;;;;4996509;28;20537;-80
2023/01/17 11:30:55;;;;;;;18.13;5.20;;;;;;;;;;5001649;28;20477;-80
2023/01/17 11:33:54;;;;;;;18.27;5.53;;;;;;;;;;4996368;28;20022;-80
2023/01/17 11:36:23;;;;;;;11.03;4.83;;;;;;;;;;5007513;28;20040;-80
2023/01/17 11:39:05;;;;;;;11.07;4.67;;;;;;;;;;4998391;28;20040;-81
2023/01/17 11:41:35;;;;;;;9.98;4.43;;;;;;;;;;4994411;28;20033;-80
2023/01/17 11:44:01;;;;;;;17.27;5.10;;;;;;;;;;5013355;28;20462;-80
2023/01/17 11:46:30;;;;;;;14.37;3.93;;;;;;;;;;5013347;28;20037;-80
2023/01/17 11:48:56;;;;;;;10.37;3.73;;;;;;;;;;4995875;28;20022;-80
2023/01/17 11:51:32;;;;;;;9.80;3.57;;;;;;;;;;4995277;28;20029;-80
2023/01/17 11:54:12;;;;;;;14.33;4.43;;;;;;;;;;4995679;28;20032;-80
2023/01/17 11:56:37;;;;;;;11.30;4.93;;;;;;;;;;4995358;28;20088;-80
2023/01/17 11:59:22;;;;;;;14.07;3.80;;;;;;;;;;4994674;28;20018;-80
2023/01/17 12:02:17;;;;;;;13.50;3.70;;;;;;;;;;4995413;28;20469;-80
2023/01/17 12:04:47;;;;;;;10.77;3.77;;;;;;;;;;4995530;28;20022;-80
2023/01/17 12:07:26;;;;;;;8.17;3.73;;;;;;;;;;5011828;28;20354;-80
2023/01/17 12:09:54;;;;;;;10.93;2.80;;;;;;;;;;4989357;28;20161;-80
2023/01/17 12:15:22;;;;;;;8.10;2.93;;;;;;;;;;5004838;28;20080;-80
2023/01/17 12:17:59;;;;;;;13.37;3.50;;;;;;;;;;5011941;28;20130;-80
2023/01/17 12:20:24;;;;;;;9.83;3.80;;;;;;;;;;5011377;28;20090;-80
2023/01/17 12:23:12;;;;;;;15.23;4.53;;;;;;;;;;4995479;28;20018;-81
2023/01/17 12:25:56;;;;;;;9.10;3.43;;;;;;;;;;4995390;28;20496;-80
2023/01/17 12:28:24;;;;;;;11.37;3.13;;;;;;;;;;4995323;28;20022;-80
2023/01/17 12:31:04;;;;;;;8.67;3.10;;;;;;;;;;4993686;28;20025;-80
2023/01/17 12:33:36;;;;;;;9.33;3.17;;;;;;;;;;4995205;28;20040;-80
2023/01/17 12:36:01;;;;;;;;;;;;;;;;;;4995337;28;20025;-80
2023/01/17 12:38:29;;;;;;;9.63;2.40;;;;;;;;;;5010132;28;19909;-80
2023/01/17 12:41:04;;;;;;;13.73;3.20;;;;;;;;;;5012817;28;20337;-80
2023/01/17 12:43:37;;;;;;;10.63;3.00;;;;;;;;;;4994649;28;20052;-80
2023/01/17 12:46:10;;;;;;;9.80;2.53;;;;;;;;;;4993072;28;20485;-80
2023/01/17 12:48:38;;;;;;;6.97;2.30;;;;;;;;;;5009352;28;20508;-80
2023/01/17 12:51:03;;;;;;;7.47;1.93;;;;;;;;;;4993748;28;20438;-80
2023/01/17 12:53:55;;;;;;;5.90;2.20;;;;;;;;;;5004701;28;20033;-80
2023/01/17 12:56:22;;;;;;;8.43;2.17;;;;;;;;;;4981617;28;20038;-79
2023/01/17 12:58:51;;;;;;;6.80;2.20;;;;;;;;;;5012557;28;20101;-79
2023/01/17 13:01:27;;;;;;;6.73;2.00;;;;;;;;;;4991648;28;20026;-80
2023/01/17 13:04:02;;;;;;;5.17;1.93;;;;;;;;;;4986794;28;20024;-80
2023/01/17 13:06:31;;;;;;;8.43;2.20;;;;;;;;;;4994665;28;20033;-80
2023/01/17 13:08:58;;;;;;;5.70;1.63;;;;;;;;;;4994872;28;20465;-81
2023/01/17 13:11:27;;;;;;;6.17;1.63;;;;;;;;;;5009546;28;20025;-79
2023/01/17 13:13:56;;;;;;;8.50;2.50;;;;;;;;;;5006279;28;20048;-80
2023/01/17 13:16:40;;;;;;;6.70;1.33;;;;;;;;;;4993103;28;20125;-81
2023/01/17 13:19:14;;;;;;;8.40;1.63;;;;;;;;;;5011774;28;20104;-81
2023/01/17 13:21:39;;;;;;;10.10;1.60;;;;;;;;;;4997422;28;20409;-80
2023/01/17 13:24:14;;;;;;;6.77;1.27;;;;;;;;;;5012174;28;20124;-80
2023/01/17 13:26:52;;;;;;;12.00;1.50;;;;;;;;;;4994198;28;20025;-81
2023/01/17 13:29:55;;;;;;;5.80;0.90;;;;;;;;;;4994023;28;20033;-80
2023/01/17 13:32:31;;;;;;;5.87;0.97;;;;;;;;;;4970612;28;20019;-80
2023/01/17 13:35:14;;;;;;;6.03;1.73;;;;;;;;;;4969584;28;20587;-80
2023/01/17 13:37:47;;;;;;;13.07;3.40;;;;;;;;;;4987200;28;20034;-80
2023/01/17 13:40:23;;;;;;;6.73;1.70;;;;;;;;;;4993695;28;20064;-79
2023/01/17 13:43:07;;;;;;;8.03;1.57;;;;;;;;;;4993856;28;20018;-81
2023/01/17 13:45:36;;;;;;;9.87;2.23;;;;;;;;;;5008241;28;20030;-81
2023/01/17 13:48:11;;;;;;;6.77;3.27;;;;;;;;;;4993907;28;20129;-81
2023/01/17 13:50:39;;;;;;;9.20;3.00;;;;;;;;;;4993858;28;20057;-81
2023/01/17 13:53:22;;;;;;;14.97;5.07;;;;;;;;;;5011579;28;20022;-81
2023/01/17 13:55:49;;;;;;;8.50;1.83;;;;;;;;;;4993477;28;20073;-80
2023/01/17 13:58:28;;;;;;;8.20;1.77;;;;;;;;;;5011405;28;20021;-81
2023/01/17 14:00:53;;;;;;;7.50;2.20;;;;;;;;;;4994028;28;20021;-81
2023/01/17 14:03:38;;;;;;;6.57;2.20;;;;;;;;;;4993825;28;20069;-81
2023/01/17 14:06:23;;;;;;;11.37;2.67;;;;;;;;;;4993029;28;20104;-80
2023/01/17 14:08:49;;;;;;;5.70;1.50;;;;;;;;;;5010715;28;20030;-81
2023/01/17 14:11:15;;;;;;;6.33;1.60;;;;;;;;;;4993838;28;20033;-81
2023/01/17 14:13:40;;;;;;;11.57;1.67;;;;;;;;;;4993821;28;20018;-81
2023/01/17 14:16:20;;;;;;;7.03;1.37;;;;;;;;;;4993122;28;20109;-81
2023/01/17 14:18:46;;;;;;;4.67;1.57;;;;;;;;;;4993627;28;20053;-81
2023/01/17 14:21:22;;;;;;;8.07;1.40;;;;;;;;;;4993607;28;20014;-81
2023/01/17 14:23:54;;;;;;;5.37;1.80;;;;;;;;;;4993921;28;20029;-81
2023/01/17 14:26:19;;;;;;;;;;;;;;;;;;4993381;28;20025;-80
2023/01/17 14:28:45;;;;;;;3.60;1.43;;;;;;;;;;5009962;28;19909;-81
2023/01/17 14:31:10;;;;;;;6.40;2.37;;;;;;;;;;4993715;28;20251;-81
2023/01/17 14:33:38;;;;;;;2.63;1.00;;;;;;;;;;4991611;28;20022;-80
2023/01/17 14:36:05;;;;;;;5.10;1.47;;;;;;;;;;4992422;28;20028;-80
2023/01/17 14:38:31;;;;;;;5.63;1.00;;;;;;;;;;4992506;28;20026;-81
2023/01/17 14:40:58;;;;;;;5.17;1.30;;;;;;;;;;5009095;28;20032;-80
2023/01/17 14:43:25;;;;;;;6.03;1.20;;;;;;;;;;4986559;28;20373;-80
2023/01/17 14:45:58;;;;;;;10.70;2.30;;;;;;;;;;5008468;28;20013;-80
2023/01/17 14:48:23;;;;;;;10.07;2.23;;;;;;;;;;5006038;28;20049;-80
2023/01/17 14:50:49;;;;;;;5.17;1.70;;;;;;;;;;4985499;28;20048;-81
2023/01/17 14:53:16;;;;;;;8.30;1.57;;;;;;;;;;5008963;28;20025;-80
2023/01/17 14:55:47;;;;;;;15.07;2.70;;;;;;;;;;4991865;28;20100;-80
2023/01/17 14:58:15;;;;;;;3.10;1.00;;;;;;;;;;4989600;28;20079;-80
2023/01/17 15:00:41;;;;;;;4.70;1.07;;;;;;;;;;4992296;28;20025;-80
2023/01/17 15:03:09;;;;;;;5.87;1.47;;;;;;;;;;4993426;28;20014;-80
2023/01/17 15:05:34;;;;;;;6.43;2.00;;;;;;;;;;5011801;28;20101;-80
2023/01/17 15:08:00;;;;;;;9.97;2.80;;;;;;;;;;4996952;28;20430;-80
2023/01/17 15:10:32;;;;;;;27.63;6.17;;;;;;;;;;5012749;28;20060;-81
2023/01/17 15:13:04;;;;;;;6.68;1.77;;;;;;;;;;5011935;28;20413;-80
2023/01/17 15:15:29;;;;;;;4.45;1.27;;;;;;;;;;4996896;28;20421;-80
2023/01/17 15:18:12;;;;;;;12.10;1.50;;;;;;;;;;4991549;28;20026;-80
2023/01/17 15:20:38;;;;;;;7.70;1.40;;;;;;;;;;5013583;28;20469;-80
2023/01/17 15:23:04;;;;;;;4.73;1.60;;;;;;;;;;4996702;28;20014;-80
2023/01/17 15:25:29;;;;;;;4.93;1.13;;;;;;;;;;5003125;28;20379;-80
2023/01/17 15:27:54;;;;;;;7.63;1.60;;;;;;;;;;5014265;28;20466;-81
2023/01/17 15:30:23;;;;;;;11.20;2.20;;;;;;;;;;4994664;28;20117;-81
2023/01/17 15:32:50;;;;;;;9.37;1.67;;;;;;;;;;5013845;28;20473;-80
2023/01/17 15:35:16;;;;;;;6.40;1.20;;;;;;;;;;4996043;28;20030;-80
2023/01/17 15:37:41;;;;;;;7.60;1.47;;;;;;;;;;4995302;28;20022;-80
2023/01/17 15:40:15;;;;;;;5.70;1.00;;;;;;;;;;4994991;28;20157;-80
2023/01/17 15:42:41;;;;;;;4.73;1.20;;;;;;;;;;4992041;28;20029;-80
2023/01/17 15:45:10;;;;;;;4.10;1.00;;;;;;;;;;4995995;28;20018;-80
2023/01/17 15:47:37;;;;;;;13.10;1.43;;;;;;;;;;5012844;28;20036;-81
2023/01/17 15:50:23;;;;;;;14.93;1.87;;;;;;;;;;4995872;28;20025;-80
2023/01/17 15:52:49;;;;;;;2.40;1.00;;;;;;;;;;4993969;28;20144;-80
2023/01/17 15:55:21;;;;;;;7.97;1.50;;;;;;;;;;4995230;28;20044;-80
2023/01/17 15:57:46;;;;;;;4.90;1.40;;;;;;;;;;5012432;28;20075;-81
2023/01/17 16:00:14;;;;;;;9.40;1.77;;;;;;;;;;4995984;28;20256;-80
2023/01/17 16:02:44;;;;;;;8.83;1.73;;;;;;;;;;4995105;28;20457;-80
2023/01/17 16:05:21;;;;;;;8.27;1.70;;;;;;;;;;5012967;28;20021;-79
2023/01/17 16:07:47;;;;;;;9.57;2.10;;;;;;;;;;4994309;28;20318;-80
2023/01/17 16:10:17;;;;;;;4.03;1.43;;;;;;;;;;4994877;28;20036;-80
2023/01/17 16:12:42;;;;;;;7.50;2.20;;;;;;;;;;5002048;28;20025;-80